createdAt,value
2018-01-28T00:00:14.181Z,39.47
2018-01-28T00:02:41.767Z,39.47
2018-01-28T00:05:09.185Z,40.13
2018-01-28T00:07:38.101Z,38.00
2018-01-28T00:10:07.478Z,37.93
2018-01-28T00:12:36.493Z,41.53
2018-01-28T00:15:10.714Z,38.43
2018-01-28T00:17:41.422Z,39.37
2018-01-28T00:20:13.040Z,36.43
2018-01-28T00:22:41.018Z,38.10
2018-01-28T00:25:07.839Z,36.30
2018-01-28T00:27:34.591Z,35.40
2018-01-28T00:30:01.345Z,37.20
2018-01-28T00:32:28.093Z,33.47
2018-01-28T00:34:54.937Z,32.37
2018-01-28T00:37:22.021Z,27.63
2018-01-28T00:39:48.922Z,29.37
2018-01-28T00:42:15.694Z,27.53
2018-01-28T00:44:42.501Z,27.17
2018-01-28T00:47:09.457Z,27.63
2018-01-28T00:49:36.231Z,27.27
2018-01-28T00:52:03.019Z,24.43
2018-01-28T00:54:29.770Z,22.13
2018-01-28T00:56:56.581Z,23.57
2018-01-28T00:59:23.362Z,21.03
2018-01-28T01:01:50.133Z,20.27
2018-01-28T01:04:16.945Z,20.47
2018-01-28T01:06:43.732Z,18.43
2018-01-28T01:09:11.309Z,16.73
2018-01-28T01:11:38.107Z,18.10
2018-01-28T01:14:04.933Z,17.83
2018-01-28T01:16:31.691Z,14.90
2018-01-28T01:18:58.450Z,12.33
2018-01-28T01:21:25.217Z,12.63
2018-01-28T01:23:51.995Z,11.73
2018-01-28T01:26:18.750Z,11.60
2018-01-28T01:28:45.511Z,11.20
2018-01-28T01:31:12.281Z,11.40
2018-01-28T01:33:39.050Z,10.93
2018-01-28T01:36:05.794Z,10.63
2018-01-28T01:38:32.573Z,10.77
2018-01-28T01:40:59.329Z,11.27
2018-01-28T01:43:26.127Z,11.80
2018-01-28T01:45:52.909Z,11.17
2018-01-28T01:48:19.669Z,11.93
2018-01-28T01:50:46.437Z,12.37
2018-01-28T01:53:13.194Z,12.37
2018-01-28T01:55:39.949Z,12.17
2018-01-28T01:58:06.761Z,11.63
2018-01-28T02:00:33.523Z,12.17
2018-01-28T02:03:00.300Z,12.90
2018-01-28T02:05:27.083Z,14.03
2018-01-28T02:07:53.886Z,13.47
2018-01-28T02:10:20.651Z,14.87
2018-01-28T02:12:47.377Z,12.10
2018-01-28T02:15:14.285Z,11.80
2018-01-28T02:17:41.705Z,11.07
2018-01-28T02:20:08.517Z,9.53
2018-01-28T02:22:35.264Z,8.47
2018-01-28T02:25:02.070Z,7.53
2018-01-28T02:27:28.838Z,8.27
2018-01-28T02:29:55.578Z,6.53
2018-01-28T02:32:22.502Z,8.93
2018-01-28T02:34:49.258Z,8.23
2018-01-28T02:37:16.006Z,7.83
2018-01-28T02:39:42.751Z,8.70
2018-01-28T02:42:09.510Z,8.30
2018-01-28T02:44:36.266Z,8.40
2018-01-28T02:47:02.987Z,8.37
2018-01-28T02:49:29.738Z,8.50
2018-01-28T02:51:56.504Z,9.07
2018-01-28T02:54:23.497Z,8.87
2018-01-28T02:56:50.279Z,9.53
2018-01-28T02:59:17.009Z,9.57
2018-01-28T03:01:43.746Z,10.13
2018-01-28T03:04:10.540Z,9.93
2018-01-28T03:06:37.295Z,10.07
2018-01-28T03:09:04.130Z,8.57
2018-01-28T03:11:30.971Z,9.53
2018-01-28T03:13:57.710Z,9.73
2018-01-28T03:16:24.481Z,9.30
2018-01-28T03:18:51.221Z,9.63
2018-01-28T03:21:17.985Z,9.80
2018-01-28T03:23:44.729Z,11.00
2018-01-28T03:26:11.645Z,10.80
2018-01-28T03:28:38.469Z,10.57
2018-01-28T03:31:05.285Z,9.90
2018-01-28T03:33:32.125Z,9.13
2018-01-28T03:35:59.162Z,9.53
2018-01-28T03:38:26.074Z,11.07
2018-01-28T03:40:52.982Z,10.07
2018-01-28T03:43:19.897Z,8.87
2018-01-28T03:45:46.761Z,8.87
2018-01-28T03:48:13.673Z,8.53
2018-01-28T03:50:40.673Z,7.80
2018-01-28T03:53:07.530Z,8.93
2018-01-28T03:55:34.580Z,9.27
2018-01-28T03:58:01.624Z,8.67
2018-01-28T04:00:28.446Z,8.67
2018-01-28T04:02:55.323Z,9.97
2018-01-28T04:05:22.227Z,9.20
2018-01-28T04:07:49.185Z,10.27
2018-01-28T04:10:16.112Z,9.20
2018-01-28T04:12:43.032Z,8.13
2018-01-28T04:15:09.881Z,8.70
2018-01-28T04:17:36.721Z,9.63
2018-01-28T04:20:03.791Z,8.67
2018-01-28T04:22:31.271Z,9.43
2018-01-28T04:24:58.239Z,9.63
2018-01-28T04:27:25.300Z,10.27
2018-01-28T04:29:52.245Z,9.43
2018-01-28T04:32:19.186Z,10.17
2018-01-28T04:34:46.288Z,11.50
2018-01-28T04:37:13.204Z,11.43
2018-01-28T04:39:40.181Z,10.17
2018-01-28T04:42:07.183Z,10.90
2018-01-28T04:44:34.723Z,11.23
2018-01-28T04:47:01.593Z,11.40
2018-01-28T04:49:28.620Z,12.23
2018-01-28T04:51:55.550Z,11.03
2018-01-28T04:54:22.413Z,11.67
2018-01-28T04:56:49.377Z,11.53
2018-01-28T04:59:16.332Z,10.57
2018-01-28T05:01:44.150Z,11.30
2018-01-28T05:04:10.989Z,10.93
2018-01-28T05:06:37.894Z,11.23
2018-01-28T05:09:04.765Z,10.83
2018-01-28T05:11:31.722Z,10.03
2018-01-28T05:13:58.705Z,10.50
2018-01-28T05:16:25.763Z,9.83
2018-01-28T05:18:52.761Z,9.40
2018-01-28T05:21:19.681Z,9.83
2018-01-28T05:23:47.312Z,9.90
2018-01-28T05:26:14.277Z,10.93
2018-01-28T05:28:41.101Z,10.27
2018-01-28T05:31:08.018Z,9.53
2018-01-28T05:33:34.889Z,10.70
2018-01-28T05:36:01.806Z,10.10
2018-01-28T05:38:28.690Z,10.57
2018-01-28T05:40:55.565Z,11.13
2018-01-28T05:43:23.250Z,11.27
2018-01-28T05:45:50.091Z,12.13
2018-01-28T05:48:16.983Z,11.73
2018-01-28T05:50:43.913Z,11.30
2018-01-28T05:53:10.915Z,12.20
2018-01-28T05:55:37.810Z,10.93
2018-01-28T05:58:04.621Z,11.10
2018-01-28T06:00:31.535Z,11.03
2018-01-28T06:02:58.466Z,11.63
2018-01-28T06:05:25.504Z,11.23
2018-01-28T06:07:52.428Z,9.83
2018-01-28T06:10:19.476Z,12.30
2018-01-28T06:12:46.420Z,11.20
2018-01-28T06:15:13.426Z,9.87
2018-01-28T06:17:40.317Z,11.23
2018-01-28T06:20:07.595Z,10.07
2018-01-28T06:22:34.512Z,11.57
2018-01-28T06:25:01.512Z,10.80
2018-01-28T06:27:28.538Z,11.27
2018-01-28T06:29:55.576Z,10.97
2018-01-28T06:32:22.638Z,10.47
2018-01-28T06:34:49.570Z,12.00
2018-01-28T06:37:16.509Z,11.40
2018-01-28T06:39:43.401Z,11.30
2018-01-28T06:42:10.286Z,11.33
2018-01-28T06:44:37.197Z,11.37
2018-01-28T06:47:04.059Z,11.07
2018-01-28T06:49:31.160Z,11.47
2018-01-28T06:51:58.080Z,11.03
2018-01-28T06:54:24.959Z,11.30
2018-01-28T06:56:52.041Z,11.70
2018-01-28T06:59:19.123Z,10.47
2018-01-28T07:01:46.233Z,11.50
2018-01-28T07:04:13.248Z,11.63
2018-01-28T07:06:40.145Z,11.27
2018-01-28T07:09:06.980Z,12.00
2018-01-28T07:11:33.904Z,11.60
2018-01-28T07:14:00.843Z,11.70
2018-01-28T07:16:27.795Z,13.20
2018-01-28T07:18:54.834Z,10.87
2018-01-28T07:21:22.648Z,11.90
2018-01-28T07:23:49.565Z,11.63
2018-01-28T07:26:16.441Z,12.07
2018-01-28T07:28:43.344Z,12.33
2018-01-28T07:31:10.188Z,12.17
2018-01-28T07:33:37.060Z,12.97
2018-01-28T07:36:03.876Z,11.87
2018-01-28T07:38:30.870Z,12.50
2018-01-28T07:40:57.833Z,12.43
2018-01-28T07:43:24.784Z,10.87
2018-01-28T07:45:51.704Z,12.03
2018-01-28T07:48:18.814Z,13.73
2018-01-28T07:50:45.785Z,13.10
2018-01-28T07:53:12.641Z,13.47
2018-01-28T07:55:39.583Z,11.70
2018-01-28T07:58:06.469Z,12.20
2018-01-28T08:00:33.466Z,17.27
2018-01-28T08:03:00.467Z,16.87
2018-01-28T08:05:27.598Z,18.87
2018-01-28T08:07:54.604Z,22.97
2018-01-28T08:10:31.346Z,19.73
2018-01-28T08:12:58.105Z,18.10
2018-01-28T08:15:24.878Z,14.30
2018-01-28T08:17:51.629Z,16.03
2018-01-28T08:20:18.529Z,13.93
2018-01-28T08:22:45.469Z,11.33
2018-01-28T08:25:12.320Z,11.40
2018-01-28T08:27:44.795Z,10.83
2018-01-28T08:30:11.628Z,9.97
2018-01-28T08:32:38.489Z,10.57
2018-01-28T08:35:05.307Z,9.30
2018-01-28T08:37:32.062Z,8.77
2018-01-28T08:39:58.947Z,9.00
2018-01-28T08:42:25.743Z,8.53
2018-01-28T08:44:52.589Z,8.70
2018-01-28T08:47:19.410Z,8.20
2018-01-28T08:49:46.268Z,15.27
2018-01-28T08:52:13.194Z,9.57
2018-01-28T08:54:39.972Z,7.60
2018-01-28T08:57:06.797Z,10.00
2018-01-28T08:59:33.725Z,9.07
2018-01-28T09:02:04.718Z,8.23
2018-01-28T09:04:31.557Z,7.57
2018-01-28T09:06:58.443Z,8.10
2018-01-28T09:09:25.295Z,8.23
2018-01-28T09:11:52.150Z,7.33
2018-01-28T09:14:19.745Z,8.67
2018-01-28T09:16:46.528Z,7.00
2018-01-28T09:19:13.262Z,8.27
2018-01-28T09:21:40.033Z,7.53
2018-01-28T09:24:06.828Z,10.57
2018-01-28T09:26:33.626Z,9.73
2018-01-28T09:29:00.383Z,8.53
2018-01-28T09:31:27.200Z,8.23
2018-01-28T09:33:53.978Z,6.93
2018-01-28T09:36:20.758Z,9.10
2018-01-28T09:38:47.596Z,8.17
2018-01-28T09:41:14.385Z,8.83
2018-01-28T09:43:41.161Z,10.73
2018-01-28T09:46:07.929Z,13.30
2018-01-28T09:48:34.974Z,13.53
2018-01-28T09:51:01.892Z,14.70
2018-01-28T09:53:28.718Z,10.13
2018-01-28T09:55:55.694Z,9.00
2018-01-28T09:58:22.475Z,8.70
2018-01-28T10:00:49.477Z,9.47
2018-01-28T10:03:16.274Z,7.60
2018-01-28T10:05:42.991Z,5.83
2018-01-28T10:08:09.746Z,6.80
2018-01-28T10:10:36.650Z,4.60
2018-01-28T10:13:03.582Z,4.47
2018-01-28T10:15:30.547Z,1.90
2018-01-28T10:17:57.287Z,1.37
2018-01-28T10:20:24.233Z,1.37
2018-01-28T10:22:51.176Z,1.20
2018-01-28T10:25:17.917Z,1.37
2018-01-28T10:27:44.661Z,1.03
2018-01-28T10:30:11.698Z,1.37
2018-01-28T10:32:38.578Z,1.13
2018-01-28T10:35:05.417Z,0.97
2018-01-28T10:37:33.168Z,1.30
2018-01-28T10:39:59.926Z,1.20
2018-01-28T10:42:26.966Z,0.90
2018-01-28T10:44:53.847Z,1.90
2018-01-28T10:47:20.733Z,1.50
2018-01-28T10:49:47.620Z,0.90
2018-01-28T10:52:14.374Z,1.57
2018-01-28T10:54:41.133Z,2.00
2018-01-28T10:57:07.921Z,1.57
2018-01-28T10:59:35.926Z,0.80
2018-01-28T11:02:02.684Z,1.80
2018-01-28T11:04:29.415Z,2.53
2018-01-28T11:06:56.158Z,1.73
2018-01-28T11:09:23.066Z,2.10
2018-01-28T11:11:50.369Z,1.23
2018-01-28T11:14:17.246Z,2.73
2018-01-28T11:16:44.036Z,2.27
2018-01-28T11:19:11.138Z,2.27
2018-01-28T11:21:38.007Z,2.03
2018-01-28T11:24:04.775Z,1.80
2018-01-28T11:26:31.581Z,3.20
2018-01-28T11:28:59.275Z,3.30
2018-01-28T11:31:26.091Z,3.37
2018-01-28T11:33:53.046Z,2.90
2018-01-28T11:36:19.825Z,2.67
2018-01-28T11:38:46.561Z,4.07
2018-01-28T11:41:13.382Z,3.13
2018-01-28T11:43:40.689Z,3.10
2018-01-28T11:46:07.476Z,3.07
2018-01-28T11:48:34.354Z,2.80
2018-01-28T11:51:01.138Z,3.40
2018-01-28T11:53:37.939Z,20.10
2018-01-28T11:56:05.313Z,4.50
2018-01-28T11:58:32.216Z,4.60
2018-01-28T12:03:38.708Z,3.87
2018-01-28T12:06:12.350Z,4.13
2018-01-28T12:08:39.098Z,2.90
2018-01-28T12:11:05.881Z,3.00
2018-01-28T12:13:32.625Z,2.90
2018-01-28T12:15:59.848Z,2.03
2018-01-28T12:18:26.692Z,4.10
2018-01-28T12:20:53.450Z,2.73
2018-01-28T12:23:20.170Z,3.40
2018-01-28T12:25:46.946Z,3.43
2018-01-28T12:28:13.729Z,3.30
2018-01-28T12:30:40.494Z,4.67
2018-01-28T12:33:07.308Z,2.17
2018-01-28T12:35:34.026Z,2.63
2018-01-28T12:38:00.803Z,3.57
2018-01-28T12:40:27.586Z,3.00
2018-01-28T12:42:54.329Z,1.50
2018-01-28T12:45:21.085Z,2.67
2018-01-28T12:47:47.871Z,2.60
2018-01-28T12:50:14.624Z,1.63
2018-01-28T12:52:41.376Z,2.53
2018-01-28T12:55:08.182Z,2.20
2018-01-28T12:57:34.973Z,2.87
2018-01-28T13:00:01.738Z,2.67
2018-01-28T13:02:28.506Z,1.77
2018-01-28T13:04:55.321Z,2.27
2018-01-28T13:07:22.073Z,2.10
2018-01-28T13:09:48.849Z,2.73
2018-01-28T13:12:15.600Z,2.20
2018-01-28T13:14:42.358Z,1.93
2018-01-28T13:17:09.106Z,2.63
2018-01-28T13:19:35.874Z,2.90
2018-01-28T13:22:02.674Z,2.43
2018-01-28T13:24:29.416Z,2.13
2018-01-28T13:26:56.252Z,2.47
2018-01-28T13:29:23.058Z,2.13
2018-01-28T13:31:49.807Z,2.40
2018-01-28T13:34:16.583Z,2.37
2018-01-28T13:36:43.348Z,1.30
2018-01-28T13:39:10.141Z,3.10
2018-01-28T13:41:36.885Z,2.10
2018-01-28T13:44:03.629Z,2.77
2018-01-28T13:46:30.427Z,3.20
2018-01-28T13:48:57.400Z,3.80
2018-01-28T13:51:24.145Z,3.40
2018-01-28T13:53:51.539Z,3.90
2018-01-28T13:56:18.374Z,3.33
2018-01-28T13:58:45.174Z,3.20
2018-01-28T14:01:11.935Z,3.13
2018-01-28T14:03:38.673Z,3.97
2018-01-28T14:06:05.440Z,3.67
2018-01-28T14:08:32.180Z,3.37
2018-01-28T14:10:59.001Z,4.00
2018-01-28T14:13:26.180Z,4.60
2018-01-28T14:15:52.954Z,3.63
2018-01-28T14:18:19.733Z,4.70
2018-01-28T14:20:46.487Z,3.93
2018-01-28T14:23:13.292Z,4.43
2018-01-28T14:25:40.075Z,4.43
2018-01-28T14:28:06.877Z,3.50
2018-01-28T14:30:33.695Z,4.43
2018-01-28T14:33:00.550Z,4.27
2018-01-28T14:35:27.289Z,4.17
2018-01-28T14:37:54.074Z,4.87
2018-01-28T14:40:21.041Z,4.17
2018-01-28T14:42:47.821Z,4.60
2018-01-28T14:45:14.602Z,3.63
2018-01-28T14:47:42.065Z,4.20
2018-01-28T14:50:09.536Z,3.50
2018-01-28T14:52:36.366Z,3.77
2018-01-28T14:55:03.137Z,5.33
2018-01-28T14:57:29.930Z,4.87
2018-01-28T14:59:56.710Z,4.00
2018-01-28T15:02:23.535Z,22.13
2018-01-28T15:04:50.290Z,3.20
2018-01-28T15:07:17.066Z,2.47
2018-01-28T15:09:43.889Z,2.60
2018-01-28T15:12:10.654Z,2.90
2018-01-28T15:14:37.458Z,2.60
2018-01-28T15:17:04.239Z,3.27
2018-01-28T15:19:31.990Z,3.50
2018-01-28T15:21:58.753Z,3.57
2018-01-28T15:24:25.537Z,4.37
2018-01-28T15:26:52.290Z,4.83
2018-01-28T15:29:19.034Z,5.30
2018-01-28T15:31:45.777Z,3.93
2018-01-28T15:34:12.565Z,3.23
2018-01-28T15:36:40.043Z,3.23
2018-01-28T15:39:06.825Z,3.37
2018-01-28T15:41:34.222Z,3.37
2018-01-28T15:44:00.978Z,4.83
2018-01-28T15:46:27.726Z,4.03
2018-01-28T15:48:54.480Z,2.47
2018-01-28T15:51:21.225Z,2.80
2018-01-28T15:53:48.018Z,2.57
2018-01-28T15:56:14.826Z,2.30
2018-01-28T15:58:41.615Z,2.40
2018-01-28T16:01:09.625Z,2.30
2018-01-28T16:03:36.480Z,2.37
2018-01-28T16:06:03.214Z,1.60
2018-01-28T16:08:29.954Z,2.43
2018-01-28T16:10:57.878Z,1.80
2018-01-28T16:13:24.725Z,2.70
2018-01-28T16:15:51.504Z,3.13
2018-01-28T16:18:18.241Z,1.90
2018-01-28T16:20:45.354Z,3.65
2018-01-28T16:23:12.353Z,3.23
2018-01-28T16:25:39.109Z,2.90
2018-01-28T16:28:06.885Z,3.37
2018-01-28T16:30:33.642Z,3.10
2018-01-28T16:33:00.454Z,3.43
2018-01-28T16:35:28.990Z,3.30
2018-01-28T16:37:55.741Z,3.80
2018-01-28T16:40:23.249Z,3.43
2018-01-28T16:42:51.665Z,3.17
2018-01-28T16:45:18.479Z,3.75
2018-01-28T16:47:45.370Z,3.20
2018-01-28T16:50:12.142Z,2.73
2018-01-28T16:52:38.885Z,2.73
2018-01-28T16:55:05.633Z,2.63
2018-01-28T16:57:33.230Z,3.80
2018-01-28T16:59:59.990Z,3.40
2018-01-28T17:02:26.763Z,2.97
2018-01-28T17:04:55.407Z,3.07
2018-01-28T17:07:23.239Z,3.58
2018-01-28T17:09:50.031Z,3.20
2018-01-28T17:12:16.805Z,3.07
2018-01-28T17:14:43.580Z,3.13
2018-01-28T17:17:10.448Z,4.00
2018-01-28T17:19:38.410Z,3.87
2018-01-28T17:22:05.187Z,3.40
2018-01-28T17:24:31.986Z,2.93
2018-01-28T17:26:58.734Z,2.40
2018-01-28T17:29:25.536Z,2.30
2018-01-28T17:31:52.307Z,2.63
2018-01-28T17:34:19.054Z,2.53
2018-01-28T17:36:46.557Z,4.40
2018-01-28T17:39:13.351Z,5.50
2018-01-28T17:41:40.122Z,4.40
2018-01-28T17:44:06.898Z,3.40
2018-01-28T17:46:33.740Z,2.87
2018-01-28T17:49:00.546Z,3.20
2018-01-28T17:51:27.630Z,3.70
2018-01-28T17:53:54.597Z,3.33
2018-01-28T17:56:21.382Z,3.83
2018-01-28T17:58:48.144Z,3.93
2018-01-28T18:01:14.888Z,5.77
2018-01-28T18:03:41.627Z,4.20
2018-01-28T18:06:08.438Z,4.73
2018-01-28T18:08:35.231Z,4.70
2018-01-28T18:11:02.122Z,5.60
2018-01-28T18:13:28.861Z,4.03
2018-01-28T18:15:55.605Z,4.00
2018-01-28T18:18:22.364Z,3.60
2018-01-28T18:20:49.149Z,4.30
2018-01-28T18:23:15.912Z,3.73
2018-01-28T18:25:42.662Z,2.80
2018-01-28T18:28:09.455Z,3.07
2018-01-28T18:30:36.234Z,2.47
2018-01-28T18:33:03.102Z,2.43
2018-01-28T18:35:29.870Z,2.87
2018-01-28T18:37:56.657Z,3.27
2018-01-28T18:40:23.527Z,3.10
2018-01-28T18:42:50.283Z,3.90
2018-01-28T18:45:17.288Z,2.60
2018-01-28T18:47:44.283Z,3.83
2018-01-28T18:50:12.325Z,3.77
2018-01-28T18:52:39.105Z,2.20
2018-01-28T18:55:05.871Z,2.67
2018-01-28T18:57:33.322Z,1.53
2018-01-28T19:00:00.235Z,4.37
2018-01-28T19:02:27.014Z,3.17
2018-01-28T19:04:53.807Z,1.67
2018-01-28T19:07:20.705Z,2.93
2018-01-28T19:09:47.516Z,2.93
2018-01-28T19:12:14.776Z,4.00
2018-01-28T19:14:41.634Z,3.30
2018-01-28T19:17:08.569Z,3.07
2018-01-28T19:19:36.323Z,2.67
2018-01-28T19:22:03.142Z,3.20
2018-01-28T19:24:29.953Z,3.30
2018-01-28T19:26:56.862Z,3.87
2018-01-28T19:29:24.460Z,2.20
2018-01-28T19:31:51.232Z,3.13
2018-01-28T19:34:19.194Z,2.60
2018-01-28T19:36:45.954Z,3.17
2018-01-28T19:39:13.479Z,3.07
2018-01-28T19:41:40.271Z,2.80
2018-01-28T19:44:08.139Z,3.37
2018-01-28T19:46:35.026Z,3.63
2018-01-28T19:49:01.839Z,2.23
2018-01-28T19:51:35.506Z,2.70
2018-01-28T19:54:02.294Z,2.83
2018-01-28T19:56:29.087Z,2.70
2018-01-28T19:58:55.911Z,2.77
2018-01-28T20:01:22.662Z,2.20
2018-01-28T20:03:50.289Z,2.60
2018-01-28T20:06:17.564Z,2.43
2018-01-28T20:09:07.722Z,2.90
2018-01-28T20:11:37.011Z,1.40
2018-01-28T20:14:04.265Z,2.73
2018-01-28T20:16:31.342Z,2.53
2018-01-28T20:18:58.109Z,2.83
2018-01-28T20:21:25.019Z,2.23
2018-01-28T20:26:48.651Z,1.93
2018-01-28T20:29:15.579Z,2.63
2018-01-28T20:31:42.339Z,2.53
2018-01-28T20:34:09.218Z,2.10
2018-01-28T20:36:36.011Z,1.70
2018-01-28T20:39:02.840Z,2.30
2018-01-28T20:41:30.615Z,2.37
2018-01-28T20:43:57.392Z,2.57
2018-01-28T20:46:24.425Z,2.27
2018-01-28T20:48:51.171Z,1.87
2018-01-28T20:51:17.972Z,2.13
2018-01-28T20:53:45.696Z,2.37
2018-01-28T20:56:14.578Z,2.33
2018-01-28T20:58:42.359Z,1.97
2018-01-28T21:01:11.506Z,2.37
2018-01-28T21:03:39.538Z,2.10
2018-01-28T21:06:06.388Z,2.17
2018-01-28T21:08:33.270Z,2.43
2018-01-28T21:11:00.117Z,2.57
2018-01-28T21:13:26.918Z,1.60
2018-01-28T21:15:53.719Z,3.00
2018-01-28T21:18:20.724Z,2.00
2018-01-28T21:20:47.538Z,2.60
2018-01-28T21:23:14.321Z,1.80
2018-01-28T21:25:41.172Z,3.43
2018-01-28T21:28:07.941Z,2.20
2018-01-28T21:30:34.842Z,3.20
2018-01-28T21:33:01.580Z,2.80
2018-01-28T21:35:38.868Z,2.37
2018-01-28T21:38:13.332Z,2.83
2018-01-28T21:40:40.362Z,2.70
2018-01-28T21:43:17.190Z,3.40
2018-01-28T21:45:44.578Z,4.67
2018-01-28T21:48:12.177Z,3.43
2018-01-28T21:50:38.965Z,3.50
2018-01-28T21:53:06.738Z,2.83
2018-01-28T21:55:33.928Z,3.10
2018-01-28T21:58:01.038Z,3.07
2018-01-28T22:00:28.599Z,3.50
2018-01-28T22:02:59.319Z,3.23
2018-01-28T22:05:30.700Z,3.83
2018-01-28T22:08:03.284Z,3.03
2018-01-28T22:10:31.289Z,2.90
2018-01-28T22:16:11.588Z,1.93
2018-01-28T22:18:47.004Z,3.00
2018-01-28T22:21:25.063Z,3.03
2018-01-28T22:24:08.758Z,2.67
2018-01-28T22:26:40.525Z,2.77
2018-01-28T22:29:08.929Z,2.70
2018-01-28T22:31:39.401Z,2.50
2018-01-28T22:34:09.384Z,2.77
2018-01-28T22:39:14.649Z,1.93
2018-01-28T22:41:47.181Z,2.90
2018-01-28T22:44:14.124Z,2.37
2018-01-28T22:46:40.968Z,1.83
2018-01-28T22:49:09.672Z,1.73
2018-01-28T22:51:39.218Z,2.10
2018-01-28T22:54:07.599Z,2.00
2018-01-28T22:56:36.936Z,2.30
2018-01-28T22:59:08.810Z,1.87
2018-01-28T23:14:41.517Z,1.60
2018-01-28T23:17:09.783Z,1.77
2018-01-28T23:19:40.335Z,2.17
2018-01-28T23:22:07.307Z,1.77
2018-01-28T23:24:34.419Z,1.77
2018-01-28T23:27:01.478Z,2.03
2018-01-28T23:29:29.889Z,2.20
2018-01-28T23:31:58.207Z,2.23
2018-01-28T23:34:25.252Z,1.70
2018-01-28T23:36:52.181Z,2.00
2018-01-28T23:39:20.506Z,1.70
2018-01-28T23:41:47.319Z,1.70
2018-01-28T23:44:14.670Z,1.60
2018-01-28T23:46:41.668Z,1.97
2018-01-28T23:49:09.521Z,1.60
2018-01-28T23:51:37.051Z,1.83
2018-01-28T23:54:03.914Z,1.80
2018-01-28T23:56:30.772Z,1.40
2018-01-28T23:58:57.659Z,1.30
